Time;durP1;ratioP1;P1;durP2;ratioP2;P2;SDS_P1;SDS_P2;PMS_P1;PMS_P2;Temp;Humidity;BMP_temperature;BMP_pressure;BME280_temperature;BME280_humidity;BME280_pressure;Samples;Min_cycle;Max_cycle;Signal;HPM_P1;HPM_P2
2023/08/20 14:40:29;;;;;;;12.20;8.00;;;26.30;99.90;;;;;;5055252;23;20060;-90
2023/08/20 14:42:57;;;;;;;9.52;8.10;;;26.40;99.90;;;;;;5034381;28;20033;-90
2023/08/20 14:45:23;;;;;;;15.13;8.30;;;26.40;99.90;;;;;;5044755;28;20040;-88
2023/08/20 14:47:49;;;;;;;15.38;8.57;;;26.40;99.90;;;;;;5041978;28;20483;-89
2023/08/20 14:50:14;;;;;;;9.02;8.07;;;26.40;99.90;;;;;;5043275;28;20079;-91
2023/08/20 17:39:36;;;;;;;14.65;6.85;;;25.00;99.90;;;;;;5700912;23;19926;-88
2023/08/20 17:42:02;;;;;;;11.95;7.40;;;24.90;99.90;;;;;;4944845;28;20043;-88
2023/08/20 17:44:27;;;;;;;16.08;7.45;;;24.90;99.90;;;;;;4945103;28;20040;-88
2023/08/20 17:46:53;;;;;;;11.88;7.07;;;24.80;99.90;;;;;;4942511;28;20036;-88
2023/08/20 17:49:19;;;;;;;10.02;6.65;;;24.70;99.90;;;;;;4946100;28;20179;-88
2023/08/20 17:51:48;;;;;;;11.95;6.70;;;24.70;99.90;;;;;;4948441;29;20027;-87
2023/08/20 17:54:13;;;;;;;16.80;7.72;;;24.50;99.90;;;;;;4937825;28;20035;-87
2023/08/20 17:56:39;;;;;;;11.20;6.60;;;24.50;99.90;;;;;;4942722;28;20484;-88
2023/08/20 17:59:07;;;;;;;13.73;7.28;;;24.40;99.90;;;;;;4942528;29;20042;-88
2023/08/20 18:01:33;;;;;;;9.57;6.60;;;24.40;99.90;;;;;;4946011;28;20496;-88
2023/08/20 18:03:59;;;;;;;8.45;6.03;;;24.30;99.90;;;;;;4941353;28;20433;-88
2023/08/20 18:06:24;;;;;;;9.07;6.10;;;24.30;99.90;;;;;;4947927;28;20031;-88
2023/08/20 18:08:50;;;;;;;9.95;6.78;;;24.30;99.90;;;;;;4946687;28;20043;-87
2023/08/20 18:11:15;;;;;;;15.38;7.00;;;24.20;99.90;;;;;;4932960;29;20082;-88
2023/08/20 18:13:41;;;;;;;10.82;6.15;;;24.20;99.90;;;;;;4949920;29;20031;-86
2023/08/20 18:16:08;;;;;;;8.98;6.65;;;24.20;99.90;;;;;;4946102;28;20470;-87
2023/08/20 18:18:37;;;;;;;13.73;7.15;;;24.10;99.90;;;;;;4951888;28;20409;-88
2023/08/20 18:21:02;;;;;;;15.65;6.97;;;24.10;99.90;;;;;;4947117;28;20039;-88
2023/08/20 18:23:28;;;;;;;11.40;7.10;;;24.10;99.90;;;;;;4951527;28;20074;-88
2023/08/20 18:25:57;;;;;;;8.60;7.13;;;24.00;99.90;;;;;;4941478;28;20039;-87
2023/08/20 18:28:26;;;;;;;16.08;7.20;;;24.00;99.90;;;;;;4938821;28;20063;-85
2023/08/20 18:31:03;;;;;;;10.10;6.65;;;23.90;99.90;;;;;;4937643;28;20035;-88
2023/08/20 18:33:33;;;;;;;8.20;6.35;;;23.90;99.90;;;;;;4944987;28;20061;-88
2023/08/20 18:36:01;;;;;;;11.85;7.05;;;23.80;99.90;;;;;;4945894;28;20284;-88
2023/08/20 18:38:32;;;;;;;11.68;6.32;;;23.80;99.90;;;;;;4944625;29;20318;-85
2023/08/20 18:41:07;;;;;;;10.20;6.50;;;23.70;99.90;;;;;;4939295;28;20085;-88
2023/08/20 18:43:36;;;;;;;11.63;6.50;;;23.60;99.90;;;;;;4946637;28;20031;-89
2023/08/20 18:46:03;;;;;;;12.07;6.32;;;23.60;99.90;;;;;;4944708;28;20038;-88
2023/08/20 18:48:33;;;;;;;14.43;7.35;;;23.60;99.90;;;;;;4929069;28;20122;-89
2023/08/20 18:51:02;;;;;;;8.45;6.72;;;23.50;99.90;;;;;;4950835;28;20042;-85
2023/08/20 18:53:28;;;;;;;7.30;6.57;;;23.50;99.90;;;;;;4948133;28;20106;-89
2023/08/20 18:55:57;;;;;;;8.52;6.50;;;23.50;99.90;;;;;;4935252;29;20133;-88
2023/08/20 18:58:22;;;;;;;10.00;6.93;;;23.40;99.90;;;;;;4943429;28;20027;-88
2023/08/20 19:00:48;;;;;;;7.35;6.18;;;23.40;99.90;;;;;;4943919;29;20019;-88
2023/08/20 19:03:17;;;;;;;10.48;6.40;;;23.30;99.90;;;;;;4940500;29;20119;-88
2023/08/20 19:05:46;;;;;;;15.93;7.00;;;23.20;99.90;;;;;;4938257;29;20110;-87
2023/08/20 19:08:13;;;;;;;14.90;6.57;;;23.20;99.90;;;;;;4947948;28;20115;-87
2023/08/20 19:10:40;;;;;;;10.02;6.35;;;23.10;99.90;;;;;;4941287;28;20034;-88
2023/08/20 19:13:08;;;;;;;10.50;6.50;;;23.10;99.90;;;;;;4945555;29;20098;-89
2023/08/20 19:15:47;;;;;;;7.65;5.80;;;23.00;99.90;;;;;;4947199;28;20071;-89
2023/08/20 19:18:13;;;;;;;11.00;6.15;;;23.00;99.90;;;;;;4939208;28;20401;-88
2023/08/20 19:20:50;;;;;;;14.80;6.35;;;23.00;99.90;;;;;;4945051;28;20090;-88
2023/08/20 19:23:21;;;;;;;10.77;5.95;;;22.80;99.90;;;;;;4940736;28;20142;-89
2023/08/20 19:25:50;;;;;;;6.68;5.72;;;22.80;99.90;;;;;;4946411;28;20082;-89
2023/08/20 19:28:16;;;;;;;12.27;6.28;;;22.80;99.90;;;;;;4946374;29;20035;-90
2023/08/20 19:30:50;;;;;;;8.45;5.60;;;22.80;99.90;;;;;;4936681;28;20034;-87
2023/08/20 19:33:17;;;;;;;6.85;5.97;;;22.70;99.90;;;;;;4947914;28;20406;-85
2023/08/20 19:35:44;;;;;;;11.38;5.68;;;22.70;99.90;;;;;;4938317;29;20396;-85
2023/08/20 19:38:14;;;;;;;14.85;5.70;;;22.70;99.90;;;;;;4952859;28;20027;-88
2023/08/20 19:40:40;;;;;;;12.18;6.43;;;22.70;99.90;;;;;;4943036;28;20051;-88
2023/08/20 19:43:08;;;;;;;12.23;5.82;;;22.60;99.90;;;;;;4940786;28;20027;-84
2023/08/20 19:45:34;;;;;;;13.32;5.57;;;22.60;99.90;;;;;;4938146;28;20011;-89
2023/08/20 19:47:59;;;;;;;11.18;5.30;;;22.50;99.90;;;;;;4945869;28;20058;-88
2023/08/20 19:50:25;;;;;;;8.35;5.50;;;22.50;99.90;;;;;;4943590;28;20023;-87
2023/08/20 19:52:52;;;;;;;8.38;5.10;;;22.50;99.90;;;;;;4946420;28;20035;-89
2023/08/20 19:55:20;;;;;;;8.43;5.47;;;22.50;99.90;;;;;;4944306;28;20545;-87
2023/08/20 19:57:46;;;;;;;8.35;5.35;;;22.50;99.90;;;;;;4944522;28;20142;-88
2023/08/20 20:00:12;;;;;;;8.77;4.93;;;22.50;99.90;;;;;;4944475;28;20106;-87
2023/08/20 20:02:38;;;;;;;6.85;5.53;;;22.50;99.90;;;;;;4944614;29;20122;-88
2023/08/20 20:05:13;;;;;;;22.05;7.10;;;22.50;99.90;;;;;;4937703;28;20031;-88
2023/08/20 20:07:43;;;;;;;8.25;5.70;;;22.50;99.90;;;;;;4947183;28;20027;-88
2023/08/20 20:10:10;;;;;;;7.68;5.60;;;22.50;99.90;;;;;;4944390;28;20040;-88
2023/08/20 20:12:39;;;;;;;12.70;5.63;;;22.50;99.90;;;;;;4939330;29;20031;-89
2023/08/20 20:15:09;;;;;;;12.63;6.22;;;22.50;99.90;;;;;;4943299;28;20039;-83
2023/08/20 20:17:36;;;;;;;10.25;5.45;;;22.50;99.90;;;;;;4945281;28;20490;-88
2023/08/20 20:20:09;;;;;;;11.02;5.85;;;22.40;99.90;;;;;;4926522;28;20064;-87
2023/08/20 20:22:35;;;;;;;6.30;5.10;;;22.40;99.90;;;;;;4938290;28;20032;-88
2023/08/20 20:25:05;;;;;;;5.32;4.82;;;22.40;99.90;;;;;;4938373;28;20083;-85
2023/08/20 20:27:34;;;;;;;7.53;5.07;;;22.50;99.90;;;;;;4940901;29;20433;-88
2023/08/20 20:30:04;;;;;;;13.95;5.40;;;22.50;99.90;;;;;;4936370;28;20054;-88
2023/08/20 20:32:33;;;;;;;6.30;5.30;;;22.50;99.90;;;;;;4941759;28;20445;-85
2023/08/20 20:34:59;;;;;;;7.82;5.57;;;22.50;99.90;;;;;;4936692;29;20031;-88
2023/08/20 20:37:24;;;;;;;6.32;4.60;;;22.50;99.90;;;;;;4941243;28;20081;-89
2023/08/20 20:39:50;;;;;;;5.13;4.63;;;22.50;99.90;;;;;;4945240;28;20023;-88
2023/08/20 20:42:16;;;;;;;6.38;5.03;;;22.50;99.90;;;;;;4935482;28;20047;-89
2023/08/20 20:44:42;;;;;;;6.38;4.95;;;22.50;99.90;;;;;;4941113;29;20023;-87
2023/08/20 20:47:08;;;;;;;11.13;6.10;;;22.50;99.90;;;;;;4940628;28;20046;-88
2023/08/20 20:49:35;;;;;;;6.93;5.60;;;22.40;99.90;;;;;;4940560;29;20024;-87
2023/08/20 20:52:00;;;;;;;14.90;5.13;;;22.40;99.90;;;;;;4942014;28;20031;-88
2023/08/20 20:54:26;;;;;;;7.15;4.72;;;22.30;99.90;;;;;;4937643;28;20370;-87
2023/08/20 20:56:52;;;;;;;5.90;4.28;;;22.30;99.90;;;;;;4943667;28;20039;-88
2023/08/20 20:59:18;;;;;;;12.23;5.20;;;22.20;99.90;;;;;;4941755;28;20047;-89
2023/08/20 21:01:43;;;;;;;7.82;5.05;;;22.20;99.90;;;;;;4940066;29;20035;-89
2023/08/20 21:04:09;;;;;;;16.67;6.40;;;22.10;99.90;;;;;;4943431;28;20074;-88
2023/08/20 21:06:34;;;;;;;14.52;5.82;;;22.10;99.90;;;;;;4940568;29;20046;-89
2023/08/20 21:09:00;;;;;;;8.02;5.30;;;22.00;99.90;;;;;;4936116;28;20055;-87
2023/08/20 21:11:26;;;;;;;11.80;5.13;;;21.90;99.90;;;;;;4943364;29;20027;-85
2023/08/20 21:13:52;;;;;;;10.43;5.03;;;21.90;99.90;;;;;;4941265;28;20031;-87
2023/08/20 21:16:19;;;;;;;7.88;5.05;;;21.90;99.90;;;;;;4925417;29;20050;-88
2023/08/20 21:18:45;;;;;;;7.38;5.05;;;21.90;99.90;;;;;;4937887;29;20323;-88
2023/08/20 21:21:12;;;;;;;6.57;4.97;;;21.90;99.90;;;;;;4936803;28;20138;-86
2023/08/20 21:23:41;;;;;;;7.38;5.10;;;21.80;99.90;;;;;;4942350;28;20051;-89
2023/08/20 21:26:07;;;;;;;6.60;4.95;;;21.80;99.90;;;;;;4937598;28;20065;-88
2023/08/20 21:28:33;;;;;;;10.35;5.10;;;21.80;99.90;;;;;;4937498;29;20047;-89
2023/08/20 21:30:59;;;;;;;15.75;5.22;;;21.80;99.90;;;;;;4941596;28;20027;-88
2023/08/20 21:33:24;;;;;;;7.40;4.93;;;21.80;99.90;;;;;;4945390;28;20031;-89
2023/08/20 21:35:53;;;;;;;6.22;5.00;;;21.80;99.90;;;;;;4942139;29;20051;-89
2023/08/20 21:38:18;;;;;;;7.15;5.65;;;21.80;99.90;;;;;;4934628;28;20031;-89
2023/08/20 21:40:47;;;;;;;9.48;5.28;;;21.80;99.90;;;;;;4946182;28;20405;-85
2023/08/20 21:43:12;;;;;;;8.32;5.53;;;21.80;99.90;;;;;;4945888;28;20058;-89
2023/08/20 21:45:38;;;;;;;8.77;5.10;;;21.80;99.90;;;;;;4943133;29;20512;-88
2023/08/20 21:48:06;;;;;;;11.10;4.70;;;21.80;99.90;;;;;;4945093;28;20055;-85
2023/08/20 21:50:32;;;;;;;7.28;4.18;;;21.80;99.90;;;;;;4950288;28;20035;-88
2023/08/20 21:52:57;;;;;;;7.88;5.15;;;21.90;99.90;;;;;;4950462;29;20069;-88
2023/08/20 21:55:23;;;;;;;10.07;5.00;;;21.90;99.90;;;;;;4945307;28;20073;-88
2023/08/20 21:57:48;;;;;;;7.43;4.70;;;21.90;99.90;;;;;;4940651;29;20540;-89
2023/08/20 22:00:16;;;;;;;16.35;6.13;;;21.90;99.90;;;;;;4956142;28;20063;-88
2023/08/20 22:02:45;;;;;;;12.63;4.72;;;21.90;99.90;;;;;;4945031;28;20102;-85
2023/08/20 22:05:15;;;;;;;10.10;5.07;;;21.90;99.90;;;;;;4946181;29;20058;-88
2023/08/20 22:07:43;;;;;;;10.88;4.55;;;21.90;99.90;;;;;;4953093;28;20021;-88
2023/08/20 22:10:10;;;;;;;17.92;5.20;;;21.90;99.90;;;;;;4942497;29;20114;-87
2023/08/20 22:12:36;;;;;;;10.23;5.38;;;21.80;99.90;;;;;;4947150;28;20031;-89
2023/08/20 22:15:01;;;;;;;13.65;5.03;;;21.80;99.90;;;;;;4952308;28;20043;-88
2023/08/20 22:17:27;;;;;;;15.43;5.30;;;21.80;99.90;;;;;;4956191;28;20046;-89
2023/08/20 22:19:56;;;;;;;9.55;5.22;;;21.80;99.90;;;;;;4950023;29;20107;-89
2023/08/20 22:22:22;;;;;;;10.32;5.25;;;21.80;99.90;;;;;;4943686;29;20019;-89
2023/08/20 22:24:47;;;;;;;7.45;4.60;;;21.80;99.90;;;;;;4946211;29;20509;-89
2023/08/20 22:27:13;;;;;;;11.23;5.13;;;21.80;99.90;;;;;;4945055;28;20054;-89
2023/08/20 22:29:39;;;;;;;11.60;5.07;;;21.70;99.90;;;;;;4944641;29;20373;-88
2023/08/20 22:32:04;;;;;;;12.07;5.43;;;21.80;99.90;;;;;;4943412;28;20117;-89
2023/08/20 22:34:30;;;;;;;10.88;6.15;;;21.80;99.90;;;;;;4921799;29;20043;-90
2023/08/20 22:36:57;;;;;;;19.25;5.63;;;21.80;99.90;;;;;;4942864;28;20030;-86
2023/08/20 22:39:23;;;;;;;14.93;6.15;;;21.90;99.90;;;;;;4952231;28;20038;-89
2023/08/20 22:41:48;;;;;;;9.95;5.85;;;21.90;99.90;;;;;;4943541;29;20043;-87
2023/08/20 22:44:14;;;;;;;17.60;6.07;;;21.90;99.90;;;;;;4936008;29;20362;-87
2023/08/20 22:46:39;;;;;;;14.02;5.28;;;21.90;99.90;;;;;;4926896;28;20090;-87
2023/08/20 22:49:08;;;;;;;11.98;5.15;;;21.80;99.90;;;;;;4939977;28;20031;-85
2023/08/20 22:51:34;;;;;;;8.23;4.50;;;21.80;99.90;;;;;;4941404;29;20110;-91
2023/08/20 22:53:59;;;;;;;7.78;4.75;;;21.80;99.90;;;;;;4944858;29;20126;-84
2023/08/20 22:56:25;;;;;;;11.10;5.25;;;21.80;99.90;;;;;;4949140;28;20043;-87
2023/08/20 22:58:52;;;;;;;18.17;5.68;;;21.80;99.90;;;;;;4943252;29;20031;-84
2023/08/20 23:01:17;;;;;;;8.85;4.50;;;21.70;99.90;;;;;;4945442;29;20035;-89
2023/08/20 23:03:43;;;;;;;6.70;4.50;;;21.70;99.90;;;;;;4948939;29;20460;-88
2023/08/20 23:06:09;;;;;;;7.20;4.30;;;21.70;99.90;;;;;;4940983;29;20038;-89
2023/08/20 23:08:34;;;;;;;5.55;4.28;;;21.70;99.90;;;;;;4940698;28;20355;-89
2023/08/20 23:11:01;;;;;;;9.55;4.45;;;21.60;99.90;;;;;;4942994;28;20073;-85
2023/08/20 23:13:26;;;;;;;6.45;4.60;;;21.60;99.90;;;;;;4943245;29;20495;-89
2023/08/20 23:15:54;;;;;;;6.30;4.15;;;21.60;99.90;;;;;;4938015;29;20039;-90
2023/08/20 23:18:20;;;;;;;6.60;3.53;;;21.50;99.90;;;;;;4946650;29;20106;-90
2023/08/20 23:20:54;;;;;;;7.40;4.78;;;21.50;99.90;;;;;;4938969;28;20096;-90
2023/08/20 23:23:23;;;;;;;12.30;5.65;;;21.50;99.90;;;;;;4943253;29;20034;-89
2023/08/20 23:25:49;;;;;;;11.48;5.07;;;21.50;99.90;;;;;;4945703;29;20019;-90
2023/08/20 23:28:15;;;;;;;12.07;5.25;;;21.40;99.90;;;;;;4944047;29;20031;-90
2023/08/20 23:30:44;;;;;;;12.32;5.72;;;21.40;99.90;;;;;;4943812;28;20023;-88
2023/08/20 23:33:10;;;;;;;11.88;5.18;;;21.40;99.90;;;;;;4950409;28;20023;-88
2023/08/20 23:35:40;;;;;;;12.45;5.70;;;21.30;99.90;;;;;;4939862;28;20051;-85
2023/08/20 23:38:06;;;;;;;6.75;5.22;;;21.20;99.90;;;;;;4944253;29;20027;-88
2023/08/20 23:40:32;;;;;;;5.35;4.55;;;21.20;99.90;;;;;;4921149;29;20403;-89
2023/08/20 23:42:57;;;;;;;7.10;4.93;;;21.20;99.90;;;;;;4939227;28;20076;-90
2023/08/20 23:45:23;;;;;;;10.27;5.30;;;21.20;99.90;;;;;;4942786;28;20039;-90
2023/08/20 23:47:48;;;;;;;5.68;4.65;;;21.20;99.90;;;;;;4943132;28;20035;-89
2023/08/20 23:50:14;;;;;;;7.88;4.40;;;21.20;99.90;;;;;;4944023;29;20031;-90
2023/08/20 23:52:40;;;;;;;5.97;4.15;;;21.10;99.90;;;;;;4941677;29;20066;-88
2023/08/20 23:55:06;;;;;;;10.35;4.45;;;21.10;99.90;;;;;;4935758;29;21241;-90
2023/08/20 23:57:31;;;;;;;5.40;4.47;;;21.10;99.90;;;;;;4939646;29;20027;-89
